Terminal Aerodrome Forecast
Issued by NWS Melbourne, FL

Home | Current Version | Previous Version | Text Only | Print | Product List | Glossary On
Versions: 1 2 3 4 5 6 7 8 9 10 11 12 13 14 15 16 17 18 19 20 21 22 23 24 25 26 27
000
FTUS42 KMLB 010538
TAFMCO
TAF
KMCO 010538Z 0106/0206 05007KT P6SM VCSH SCT025 BKN060
      TEMPO 0106/0109 SCT006 BKN025
     FM010900 06005KT 5SM BR OVC005
     FM011400 12009KT P6SM SCT008 BKN020
     FM011800 12010KT P6SM BKN040
      TEMPO 0118/0122 3SM SHRA BKN025
     FM020000 10006KT P6SM SCT030 SCT060 BKN100=

USA.gov is the U.S. government's official web portal to all federal, state and local government web resources and services.